Time;durP1;ratioP1;P1;durP2;ratioP2;P2;SDS_P1;SDS_P2;PMS_P1;PMS_P2;Temp;Humidity;BMP_temperature;BMP_pressure;BME280_temperature;BME280_humidity;BME280_pressure;Samples;Min_cycle;Max_cycle;Signal;HPM_P1;HPM_P2
2022/07/07 00:00:00;;;;;;;8.60;5.60;;;;;;;14.05;67.22;98933.90;433646;1269;111061;-41
2022/07/07 00:20:34;;;;;;;11.30;5.80;;;;;;;13.80;67.82;98920.84;433741;1268;97496;-44
2022/07/07 00:30:42;;;;;;;9.10;5.10;;;;;;;13.73;68.16;98916.11;433666;1269;109883;-41
2022/07/07 00:40:49;;;;;;;9.20;4.60;;;;;;;13.60;68.28;98912.71;433654;1268;109192;-42
2022/07/07 00:51:01;;;;;;;6.20;4.30;;;;;;;13.59;68.43;98906.97;433523;1269;97897;-41
2022/07/07 01:01:07;;;;;;;6.90;5.10;;;;;;;13.40;68.44;98907.19;433364;1271;108956;-41
2022/07/07 01:11:14;;;;;;;11.20;5.60;;;;;;;13.13;68.63;98898.11;434210;1258;97924;-42
2022/07/07 01:21:23;;;;;;;6.90;5.60;;;;;;;12.83;68.66;98903.88;434133;1267;111130;-41
2022/07/07 01:31:31;;;;;;;7.80;5.30;;;;;;;12.59;69.05;98897.48;433978;1267;108823;-42
2022/07/07 01:41:38;;;;;;;8.30;5.40;;;;;;;12.48;69.31;98892.07;434165;1267;97920;-43
2022/07/07 01:51:45;;;;;;;9.10;5.80;;;;;;;12.26;69.38;98893.86;433965;1267;108713;-44
2022/07/07 02:01:53;;;;;;;7.00;5.80;;;;;;;11.98;69.89;98890.55;434116;1268;97907;-42
2022/07/07 02:12:00;;;;;;;8.00;5.40;;;;;;;11.85;70.12;98885.88;434115;1266;111021;-44
2022/07/07 02:22:06;;;;;;;7.30;5.10;;;;;;;11.64;70.20;98888.04;433915;1267;108761;-41
2022/07/07 02:32:13;;;;;;;5.20;4.70;;;;;;;11.56;70.50;98886.44;434071;1267;97893;-43
2022/07/07 02:42:20;;;;;;;7.60;4.80;;;;;;;11.63;70.86;98887.73;434048;1267;109043;-44
2022/07/07 02:52:27;;;;;;;9.60;6.20;;;;;;;11.74;71.01;98891.90;434070;1267;97930;-44
2022/07/07 03:02:35;;;;;;;10.90;6.80;;;;;;;11.67;71.03;98889.14;434209;1268;111077;-44
2022/07/07 03:12:42;;;;;;;8.10;6.10;;;;;;;11.70;71.04;98892.45;434146;1266;108879;-42
2022/07/07 03:22:49;;;;;;;7.70;5.00;;;;;;;12.04;70.96;98893.25;434162;1266;97888;-46
2022/07/07 03:32:57;;;;;;;6.60;5.50;;;;;;;14.27;69.97;98884.17;434067;1267;111343;-41
2022/07/07 03:43:04;;;;;;;7.20;5.70;;;;;;;16.39;68.05;98877.41;434088;1267;108794;-44
2022/07/07 03:53:11;;;;;;;7.90;5.10;;;;;;;17.52;66.38;98868.52;434180;1265;98018;-43
2022/07/07 04:03:19;;;;;;;8.50;5.90;;;;;;;19.40;64.84;98861.96;434145;1267;111228;-47
2022/07/07 04:13:26;;;;;;;7.50;4.70;;;;;;;20.40;63.68;98861.05;434137;1267;108626;-44
2022/07/07 04:23:34;;;;;;;8.40;5.60;;;;;;;20.48;62.59;98868.83;434252;1268;97113;-43
2022/07/07 04:33:41;;;;;;;8.90;4.30;;;;;;;19.12;63.17;98861.23;434210;1268;109167;-42
2022/07/07 04:43:49;;;;;;;9.80;5.30;;;;;;;18.34;63.48;98853.42;434239;1268;97913;-43
2022/07/07 04:53:56;;;;;;;11.40;6.30;;;;;;;18.04;63.68;98853.44;434224;1267;111051;-43
2022/07/07 05:04:02;;;;;;;13.60;6.70;;;;;;;18.26;63.89;98844.80;434138;1268;108824;-42
2022/07/07 05:14:10;;;;;;;8.00;5.30;;;;;;;20.56;63.23;98838.56;434185;1268;96930;-41
2022/07/07 05:24:17;;;;;;;5.00;3.40;;;;;;;22.08;61.09;98842.88;434365;1266;111077;-42
2022/07/07 05:34:24;;;;;;;8.60;3.20;;;;;;;21.82;59.44;98845.58;434325;1268;109269;-42
2022/07/07 05:44:31;;;;;;;7.10;2.80;;;;;;;21.39;58.35;98835.50;434129;1268;97952;-41
2022/07/07 05:54:38;;;;;;;6.80;2.80;;;;;;;21.81;58.02;98826.30;434183;1268;110929;-43
2022/07/07 06:04:45;;;;;;;6.00;1.60;;;;;;;22.82;55.84;98823.74;434174;1267;108734;-44
2022/07/07 06:15:00;;;;;;;7.50;1.80;;;;;;;23.40;54.37;98819.98;434138;1267;96657;-43
2022/07/07 06:25:09;;;;;;;4.40;1.20;;;;;;;23.26;52.69;98810.41;434218;1268;110914;-42
2022/07/07 06:35:16;;;;;;;5.80;1.50;;;;;;;23.07;52.22;98802.71;434188;1268;108767;-42
2022/07/07 06:55:30;;;;;;;1.30;0.90;;;;;;;23.19;49.91;98807.52;434187;1268;108855;-46
2022/07/07 07:05:37;;;;;;;2.60;1.20;;;;;;;23.03;48.96;98807.41;433952;1268;96892;-42
2022/07/07 07:15:44;;;;;;;;;;;;;;;22.92;48.68;98805.62;434170;1268;110122;-42
2022/07/07 07:25:51;;;;;;;4.20;1.50;;;;;;;22.98;48.30;98813.68;434157;1266;107733;-41
2022/07/07 07:35:58;;;;;;;6.90;1.80;;;;;;;22.67;47.73;98806.65;434133;1268;96666;-42
2022/07/07 07:46:05;;;;;;;3.70;1.00;;;;;;;22.74;47.77;98806.13;434452;1267;108889;-45
2022/07/07 07:56:12;;;;;;;1.40;1.00;;;;;;;22.90;47.17;98803.61;434170;1267;97901;-42
2022/07/07 08:16:24;;;;;;;3.00;1.30;;;;;;;23.16;45.97;98798.73;434131;1268;97958;-44
2022/07/07 08:26:32;;;;;;;1.40;0.70;;;;;;;23.30;45.42;98796.92;434200;1268;97997;-41
2022/07/07 08:36:40;;;;;;;2.80;1.10;;;;;;;24.29;44.00;98792.18;434059;1267;111000;-42
2022/07/07 08:46:47;;;;;;;2.80;0.90;;;;;;;25.09;43.51;98790.45;434140;1268;108783;-45
2022/07/07 08:56:53;;;;;;;;;;;;;;;25.24;42.22;98780.73;433749;1268;637989;-43
2022/07/07 09:07:02;;;;;;;3.10;0.90;;;;;;;25.09;41.40;98772.66;434185;1267;111290;-45
2022/07/07 09:17:17;;;;;;;27.00;2.70;;;;;;;24.65;41.28;98778.08;434164;1268;108973;-44
2022/07/07 09:27:25;;;;;;;5.90;1.50;;;;;;;24.77;41.49;98770.02;434170;1267;97923;-45
2022/07/07 09:48:08;;;;;;;5.00;1.40;;;;;;;25.31;41.04;98763.80;434043;1267;108836;-42
2022/07/07 09:58:15;;;;;;;7.10;1.00;;;;;;;25.26;39.87;98764.95;434114;1267;97986;-41
2022/07/07 10:08:23;;;;;;;7.50;1.60;;;;;;;25.01;39.91;98750.35;434161;1267;111198;-43
2022/07/07 10:18:31;;;;;;;1.80;0.90;;;;;;;25.11;39.05;98750.83;434132;1268;109336;-45
2022/07/07 10:28:59;;;;;;;2.10;1.30;;;;;;;25.62;39.02;98748.13;434112;1267;99254;-42
2022/07/07 10:39:09;;;;;;;1.70;1.10;;;;;;;25.89;38.26;98740.48;434120;1267;109207;-46
2022/07/07 10:49:16;;;;;;;4.50;1.70;;;;;;;25.50;38.25;98734.19;433991;1265;99231;-42
2022/07/07 10:59:24;;;;;;;3.90;1.30;;;;;;;25.12;38.29;98729.05;434215;1267;112625;-42
2022/07/07 11:09:48;;;;;;;6.80;1.50;;;;;;;24.94;38.07;98725.10;434116;1267;108949;-44
2022/07/07 11:19:59;;;;;;;6.80;1.30;;;;;;;25.10;38.35;98714.98;434270;1267;98065;-44
2022/07/07 11:30:04;;;;;;;3.50;1.00;;;;;;;24.91;38.21;98715.78;434059;1266;108801;-45
2022/07/07 11:40:23;;;;;;;3.90;1.80;;;;;;;25.03;38.30;98710.30;434064;1266;99243;-43
2022/07/07 12:00:40;;;;;;;3.90;1.70;;;;;;;25.43;37.88;98700.02;434106;1267;108764;-42
2022/07/07 12:10:52;;;;;;;4.10;1.70;;;;;;;25.08;37.47;98688.46;434216;1268;99929;-42
2022/07/07 12:20:57;;;;;;;4.30;1.20;;;;;;;24.97;37.33;98689.75;434032;1265;108820;-45
2022/07/07 12:41:10;;;;;;;4.50;1.90;;;;;;;25.17;37.35;98674.23;434290;1267;112545;-46
2022/07/07 12:51:17;;;;;;;7.50;1.90;;;;;;;25.61;37.25;98664.26;433947;1268;109694;-44
2022/07/07 13:01:26;;;;;;;2.20;1.40;;;;;;;25.72;36.85;98657.16;434150;1267;99268;-42
2022/07/07 13:11:33;;;;;;;1.50;1.30;;;;;;;25.78;36.73;98644.25;433981;1267;108799;-42
2022/07/07 13:21:40;;;;;;;4.10;1.00;;;;;;;25.57;36.99;98639.33;434163;1267;99298;-44
2022/07/07 13:41:55;;;;;;;4.40;1.20;;;;;;;25.49;36.71;98633.64;434219;1266;108810;-43
2022/07/07 13:52:17;;;;;;;4.10;1.50;;;;;;;25.42;36.40;98628.21;434097;1267;99264;-44
2022/07/07 14:12:40;;;;;;;7.90;1.70;;;;;;;25.34;36.52;98621.72;434091;1266;99287;-43
2022/07/07 14:22:48;;;;;;;3.30;1.40;;;;;;;24.94;36.82;98621.08;434205;1267;112293;-44
2022/07/07 14:32:55;;;;;;;2.80;1.60;;;;;;;24.74;37.42;98617.30;433951;1268;108799;-42
2022/07/07 14:43:03;;;;;;;2.30;1.10;;;;;;;24.91;37.25;98615.10;434090;1266;99250;-42
2022/07/07 14:53:09;;;;;;;4.30;1.10;;;;;;;24.51;37.52;98617.98;434053;1266;108268;-42
2022/07/07 15:03:16;;;;;;;6.00;1.30;;;;;;;24.50;38.08;98620.92;434072;1266;99262;-47
2022/07/07 15:13:24;;;;;;;3.60;1.60;;;;;;;24.47;37.88;98627.52;434093;1266;110977;-43
2022/07/07 15:33:37;;;;;;;2.10;1.20;;;;;;;24.08;38.40;98623.63;434247;1267;99334;-42
2022/07/07 15:43:41;;;;;;;;;;;;;;;23.99;38.56;98617.38;433987;1268;108809;-43
2022/07/07 15:53:50;;;;;;;2.40;1.10;;;;;;;23.95;38.58;98621.76;433990;1267;99238;-42
2022/07/07 16:14:22;;;;;;;4.20;1.60;;;;;;;23.49;38.92;98632.82;433965;1266;108737;-43
2022/07/07 16:24:30;;;;;;;4.80;1.60;;;;;;;23.25;38.98;98634.48;433847;1267;99283;-42
2022/07/07 16:34:35;;;;;;;6.00;1.70;;;;;;;23.06;39.27;98637.71;434072;1267;108727;-43
2022/07/07 16:44:43;;;;;;;6.20;1.30;;;;;;;22.89;39.68;98641.51;434131;1267;99343;-42
2022/07/07 16:54:51;;;;;;;3.70;1.40;;;;;;;22.67;40.31;98643.81;434121;1267;112262;-42
2022/07/07 17:15:05;;;;;;;4.20;1.30;;;;;;;22.04;40.85;98653.39;434170;1267;99228;-41
2022/07/07 17:25:13;;;;;;;5.00;2.00;;;;;;;21.57;41.49;98660.90;434347;1267;108760;-41
2022/07/07 17:35:21;;;;;;;5.10;1.70;;;;;;;21.29;42.19;98656.14;434099;1268;99269;-42
2022/07/07 17:45:29;;;;;;;2.30;1.10;;;;;;;21.11;42.72;98653.83;434044;1267;112396;-43
2022/07/07 17:55:36;;;;;;;1.50;1.10;;;;;;;20.87;43.19;98655.77;433860;1266;108846;-44
2022/07/07 18:05:45;;;;;;;7.50;1.50;;;;;;;20.65;43.80;98658.69;433998;1268;99375;-41
2022/07/07 18:15:51;;;;;;;4.30;1.50;;;;;;;20.56;44.50;98666.02;434253;1267;108906;-42
2022/07/07 18:25:58;;;;;;;3.10;1.30;;;;;;;20.51;45.09;98675.07;434020;1266;99254;-42
2022/07/07 18:36:04;;;;;;;4.80;1.70;;;;;;;20.42;45.55;98676.71;434169;1268;111539;-42
2022/07/07 18:46:12;;;;;;;2.60;2.00;;;;;;;20.20;45.85;98688.20;434159;1267;108939;-43
2022/07/07 18:56:19;;;;;;;5.30;3.10;;;;;;;20.02;46.61;98696.07;434089;1267;99272;-43
2022/07/07 19:06:26;;;;;;;13.60;3.60;;;;;;;19.83;46.82;98706.63;434023;1267;108484;-44
2022/07/07 19:16:34;;;;;;;9.00;4.80;;;;;;;19.67;47.44;98711.66;434083;1267;101494;-42
2022/07/07 19:26:42;;;;;;;11.00;4.90;;;;;;;19.51;47.77;98719.66;434174;1265;112406;-44
2022/07/07 19:36:48;;;;;;;15.70;4.50;;;;;;;19.34;48.14;98729.64;434137;1267;107851;-42
2022/07/07 19:46:55;;;;;;;9.10;4.30;;;;;;;19.08;48.95;98740.52;434227;1267;99788;-41
2022/07/07 19:57:02;;;;;;;6.30;4.10;;;;;;;18.79;49.60;98745.15;434350;1268;107787;-42
2022/07/07 20:07:12;;;;;;;7.70;5.50;;;;;;;18.62;50.59;98750.02;434062;1268;98007;-43
2022/07/07 20:27:27;;;;;;;9.20;4.60;;;;;;;18.27;51.70;98762.04;434210;1267;108777;-43
2022/07/07 20:37:34;;;;;;;10.30;5.20;;;;;;;18.19;52.42;98772.23;434241;1267;99241;-41
2022/07/07 20:47:46;;;;;;;6.00;3.90;;;;;;;18.13;52.73;98774.73;434324;1267;108828;-43
2022/07/07 20:58:13;;;;;;;9.70;3.70;;;;;;;18.20;53.16;98786.41;433745;1268;506433;-40
2022/07/07 21:08:21;;;;;;;5.80;2.60;;;;;;;18.24;52.99;98801.34;434209;1267;112411;-42
2022/07/07 21:18:28;;;;;;;5.40;2.80;;;;;;;18.21;52.92;98802.84;434088;1268;108863;-45
2022/07/07 21:28:37;;;;;;;5.90;3.40;;;;;;;18.16;53.16;98811.63;434147;1267;99255;-45
2022/07/07 21:38:44;;;;;;;6.50;3.70;;;;;;;18.09;53.30;98813.12;434008;1267;108868;-42
2022/07/07 21:48:51;;;;;;;6.40;4.10;;;;;;;17.98;53.59;98825.52;434214;1266;99257;-43
2022/07/07 21:58:58;;;;;;;3.90;3.40;;;;;;;17.87;53.98;98835.89;434192;1268;112506;-45
2022/07/07 22:09:05;;;;;;;8.10;3.40;;;;;;;17.75;54.35;98836.23;434279;1266;108876;-44
2022/07/07 22:19:12;;;;;;;2.60;2.30;;;;;;;17.68;54.87;98843.92;434048;1268;99255;-42
2022/07/07 22:29:19;;;;;;;2.90;2.00;;;;;;;17.68;55.16;98846.66;433940;1268;108925;-42
2022/07/07 22:39:27;;;;;;;3.10;1.90;;;;;;;17.67;55.36;98854.05;434067;1268;99267;-41
2022/07/07 22:49:34;;;;;;;5.70;2.70;;;;;;;17.69;55.68;98854.74;434061;1267;112456;-42
2022/07/07 22:59:41;;;;;;;3.50;2.20;;;;;;;17.68;55.98;98861.11;434099;1268;107426;-41
2022/07/07 23:09:49;;;;;;;8.10;2.30;;;;;;;17.60;56.35;98867.68;434263;1268;98101;-41
2022/07/07 23:19:56;;;;;;;3.40;2.40;;;;;;;17.47;56.54;98868.48;434117;1268;108780;-41
2022/07/07 23:30:03;;;;;;;5.30;3.20;;;;;;;17.36;56.99;98871.92;434058;1267;99336;-42
2022/07/07 23:40:12;;;;;;;3.50;2.00;;;;;;;17.31;57.24;98870.27;434150;1268;112383;-42
